sensor_id;sensor_type;location;lat;lon;timestamp;temperature;humidity
37232;DHT22;23125;48.156;15.954;2022-12-18T00:01:21;4.30;62.40
37232;DHT22;23125;48.156;15.954;2022-12-18T00:03:55;4.30;62.30
37232;DHT22;23125;48.156;15.954;2022-12-18T00:06:23;4.20;62.20
37232;DHT22;23125;48.156;15.954;2022-12-18T00:08:49;4.20;62.20
37232;DHT22;23125;48.156;15.954;2022-12-18T00:11:17;4.20;62.10
37232;DHT22;23125;48.156;15.954;2022-12-18T00:13:44;4.20;62.10
37232;DHT22;23125;48.156;15.954;2022-12-18T00:16:13;4.10;62.00
37232;DHT22;23125;48.156;15.954;2022-12-18T00:18:41;4.10;62.00
37232;DHT22;23125;48.156;15.954;2022-12-18T00:21:09;4.00;61.90
37232;DHT22;23125;48.156;15.954;2022-12-18T00:23:36;4.00;61.90
37232;DHT22;23125;48.156;15.954;2022-12-18T00:26:05;4.00;61.90
37232;DHT22;23125;48.156;15.954;2022-12-18T00:28:32;3.90;61.80
37232;DHT22;23125;48.156;15.954;2022-12-18T00:31:06;3.90;61.90
37232;DHT22;23125;48.156;15.954;2022-12-18T00:33:33;3.80;61.90
37232;DHT22;23125;48.156;15.954;2022-12-18T00:38:28;3.80;61.90
37232;DHT22;23125;48.156;15.954;2022-12-18T00:40:54;3.70;61.80
37232;DHT22;23125;48.156;15.954;2022-12-18T00:43:20;3.70;61.70
37232;DHT22;23125;48.156;15.954;2022-12-18T00:45:46;3.70;61.70
37232;DHT22;23125;48.156;15.954;2022-12-18T00:48:12;3.60;61.60
37232;DHT22;23125;48.156;15.954;2022-12-18T00:50:37;3.60;61.60
37232;DHT22;23125;48.156;15.954;2022-12-18T00:53:04;3.50;61.40
37232;DHT22;23125;48.156;15.954;2022-12-18T00:55:30;3.50;61.40
37232;DHT22;23125;48.156;15.954;2022-12-18T00:57:55;3.40;61.30
37232;DHT22;23125;48.156;15.954;2022-12-18T01:00:21;3.40;61.30
37232;DHT22;23125;48.156;15.954;2022-12-18T01:02:48;3.30;61.20
37232;DHT22;23125;48.156;15.954;2022-12-18T01:05:14;3.30;61.20
37232;DHT22;23125;48.156;15.954;2022-12-18T01:07:40;3.20;61.00
37232;DHT22;23125;48.156;15.954;2022-12-18T01:10:08;3.10;61.60
37232;DHT22;23125;48.156;15.954;2022-12-18T01:12:35;3.10;60.90
37232;DHT22;23125;48.156;15.954;2022-12-18T01:15:01;3.00;60.70
37232;DHT22;23125;48.156;15.954;2022-12-18T01:17:27;3.00;60.60
37232;DHT22;23125;48.156;15.954;2022-12-18T01:19:53;2.90;60.50
37232;DHT22;23125;48.156;15.954;2022-12-18T01:22:19;2.80;60.50
37232;DHT22;23125;48.156;15.954;2022-12-18T01:24:45;2.70;60.30
37232;DHT22;23125;48.156;15.954;2022-12-18T01:27:11;2.60;60.20
37232;DHT22;23125;48.156;15.954;2022-12-18T01:29:37;2.50;60.20
37232;DHT22;23125;48.156;15.954;2022-12-18T01:32:02;2.40;60.20
37232;DHT22;23125;48.156;15.954;2022-12-18T01:34:28;2.30;60.20
37232;DHT22;23125;48.156;15.954;2022-12-18T01:36:54;2.20;60.30
37232;DHT22;23125;48.156;15.954;2022-12-18T01:39:20;2.20;60.50
37232;DHT22;23125;48.156;15.954;2022-12-18T01:41:47;2.10;60.40
37232;DHT22;23125;48.156;15.954;2022-12-18T01:47:47;2.00;60.50
37232;DHT22;23125;48.156;15.954;2022-12-18T01:50:35;1.90;60.40
37232;DHT22;23125;48.156;15.954;2022-12-18T01:55:32;1.80;60.40
37232;DHT22;23125;48.156;15.954;2022-12-18T01:58:02;1.70;60.20
37232;DHT22;23125;48.156;15.954;2022-12-18T02:00:28;1.60;60.10
37232;DHT22;23125;48.156;15.954;2022-12-18T02:02:54;1.60;60.30
37232;DHT22;23125;48.156;15.954;2022-12-18T02:11:15;1.40;60.40
37232;DHT22;23125;48.156;15.954;2022-12-18T02:17:03;1.20;60.10
37232;DHT22;23125;48.156;15.954;2022-12-18T02:27:50;0.90;60.10
37232;DHT22;23125;48.156;15.954;2022-12-18T02:30:19;0.80;60.20
37232;DHT22;23125;48.156;15.954;2022-12-18T02:32:51;0.70;60.20
37232;DHT22;23125;48.156;15.954;2022-12-18T02:35:23;0.70;60.90
37232;DHT22;23125;48.156;15.954;2022-12-18T02:37:51;0.60;60.20
37232;DHT22;23125;48.156;15.954;2022-12-18T02:40:21;0.60;60.20
37232;DHT22;23125;48.156;15.954;2022-12-18T02:42:47;0.50;60.20
37232;DHT22;23125;48.156;15.954;2022-12-18T02:45:13;0.50;60.20
37232;DHT22;23125;48.156;15.954;2022-12-18T02:47:42;0.50;60.10
37232;DHT22;23125;48.156;15.954;2022-12-18T02:50:14;0.40;60.10
37232;DHT22;23125;48.156;15.954;2022-12-18T02:55:22;0.40;60.00
37232;DHT22;23125;48.156;15.954;2022-12-18T02:58:10;0.30;60.10
37232;DHT22;23125;48.156;15.954;2022-12-18T03:00:51;0.20;60.00
37232;DHT22;23125;48.156;15.954;2022-12-18T03:03:26;0.10;60.10
37232;DHT22;23125;48.156;15.954;2022-12-18T03:06:05;0.10;60.00
37232;DHT22;23125;48.156;15.954;2022-12-18T03:08:38;0.10;60.10
37232;DHT22;23125;48.156;15.954;2022-12-18T03:11:07;0.10;60.00
37232;DHT22;23125;48.156;15.954;2022-12-18T03:13:49;0.00;60.00
37232;DHT22;23125;48.156;15.954;2022-12-18T03:16:27;0.00;60.00
37232;DHT22;23125;48.156;15.954;2022-12-18T03:19:01;-0.10;59.90
37232;DHT22;23125;48.156;15.954;2022-12-18T03:21:34;-0.10;59.90
37232;DHT22;23125;48.156;15.954;2022-12-18T03:24:06;-0.10;59.90
37232;DHT22;23125;48.156;15.954;2022-12-18T03:26:33;-0.20;59.80
37232;DHT22;23125;48.156;15.954;2022-12-18T03:29:03;-0.30;59.70
37232;DHT22;23125;48.156;15.954;2022-12-18T03:31:32;-0.30;59.70
37232;DHT22;23125;48.156;15.954;2022-12-18T03:34:04;-0.30;59.70
37232;DHT22;23125;48.156;15.954;2022-12-18T03:36:32;-0.40;59.70
37232;DHT22;23125;48.156;15.954;2022-12-18T03:38:58;-0.40;59.70
37232;DHT22;23125;48.156;15.954;2022-12-18T03:54:31;-0.70;59.50
37232;DHT22;23125;48.156;15.954;2022-12-18T03:57:06;-0.80;59.50
37232;DHT22;23125;48.156;15.954;2022-12-18T03:59:33;-0.80;59.70
37232;DHT22;23125;48.156;15.954;2022-12-18T04:02:00;-0.90;59.70
37232;DHT22;23125;48.156;15.954;2022-12-18T04:04:27;-0.90;60.30
37232;DHT22;23125;48.156;15.954;2022-12-18T04:06:54;-0.90;59.70
37232;DHT22;23125;48.156;15.954;2022-12-18T04:09:20;-0.90;59.70
37232;DHT22;23125;48.156;15.954;2022-12-18T04:11:47;-0.90;59.70
37232;DHT22;23125;48.156;15.954;2022-12-18T04:14:13;-1.00;59.60
37232;DHT22;23125;48.156;15.954;2022-12-18T04:16:39;-1.00;59.60
37232;DHT22;23125;48.156;15.954;2022-12-18T04:19:05;-1.00;59.50
37232;DHT22;23125;48.156;15.954;2022-12-18T04:21:31;-1.10;59.50
37232;DHT22;23125;48.156;15.954;2022-12-18T04:23:57;-1.10;59.50
37232;DHT22;23125;48.156;15.954;2022-12-18T04:26:23;-1.20;59.50
37232;DHT22;23125;48.156;15.954;2022-12-18T04:28:49;-1.20;59.50
37232;DHT22;23125;48.156;15.954;2022-12-18T04:31:15;-1.20;59.50
37232;DHT22;23125;48.156;15.954;2022-12-18T04:33:41;-1.20;59.50
37232;DHT22;23125;48.156;15.954;2022-12-18T04:36:07;-1.30;59.40
37232;DHT22;23125;48.156;15.954;2022-12-18T04:38:33;-1.30;59.40
37232;DHT22;23125;48.156;15.954;2022-12-18T04:40:59;-1.40;59.30
37232;DHT22;23125;48.156;15.954;2022-12-18T04:43:25;-1.40;59.40
37232;DHT22;23125;48.156;15.954;2022-12-18T04:45:50;-1.40;59.40
37232;DHT22;23125;48.156;15.954;2022-12-18T04:48:16;-1.50;59.30
37232;DHT22;23125;48.156;15.954;2022-12-18T04:50:42;-1.50;59.40
37232;DHT22;23125;48.156;15.954;2022-12-18T04:53:08;-1.60;59.40
37232;DHT22;23125;48.156;15.954;2022-12-18T04:55:34;-1.60;59.40
37232;DHT22;23125;48.156;15.954;2022-12-18T04:58:00;-1.70;59.40
37232;DHT22;23125;48.156;15.954;2022-12-18T05:00:25;-1.70;59.50
37232;DHT22;23125;48.156;15.954;2022-12-18T05:02:51;-1.80;59.40
37232;DHT22;23125;48.156;15.954;2022-12-18T05:05:17;-1.70;59.50
37232;DHT22;23125;48.156;15.954;2022-12-18T05:07:43;-1.80;59.50
37232;DHT22;23125;48.156;15.954;2022-12-18T05:10:09;-1.80;59.50
37232;DHT22;23125;48.156;15.954;2022-12-18T05:12:35;-1.80;59.40
37232;DHT22;23125;48.156;15.954;2022-12-18T05:15:21;-1.80;59.40
37232;DHT22;23125;48.156;15.954;2022-12-18T05:17:47;-1.80;59.40
37232;DHT22;23125;48.156;15.954;2022-12-18T05:20:13;-1.90;59.40
37232;DHT22;23125;48.156;15.954;2022-12-18T05:22:39;-1.90;59.40
37232;DHT22;23125;48.156;15.954;2022-12-18T05:25:05;-1.90;59.40
37232;DHT22;23125;48.156;15.954;2022-12-18T05:27:31;-1.90;59.30
37232;DHT22;23125;48.156;15.954;2022-12-18T05:29:57;-2.00;59.30
37232;DHT22;23125;48.156;15.954;2022-12-18T05:32:22;-2.00;59.30
37232;DHT22;23125;48.156;15.954;2022-12-18T05:34:48;-2.10;59.30
37232;DHT22;23125;48.156;15.954;2022-12-18T05:37:14;-2.10;59.40
37232;DHT22;23125;48.156;15.954;2022-12-18T05:39:40;-2.10;59.40
37232;DHT22;23125;48.156;15.954;2022-12-18T05:42:06;-2.10;59.40
37232;DHT22;23125;48.156;15.954;2022-12-18T05:44:31;-2.10;59.40
37232;DHT22;23125;48.156;15.954;2022-12-18T05:46:57;-2.10;59.30
37232;DHT22;23125;48.156;15.954;2022-12-18T05:49:23;-2.20;59.30
37232;DHT22;23125;48.156;15.954;2022-12-18T05:51:49;-2.20;59.20
37232;DHT22;23125;48.156;15.954;2022-12-18T05:54:15;-2.20;59.20
37232;DHT22;23125;48.156;15.954;2022-12-18T05:56:41;-2.20;59.30
37232;DHT22;23125;48.156;15.954;2022-12-18T05:59:07;-2.30;59.30
37232;DHT22;23125;48.156;15.954;2022-12-18T06:01:32;-2.20;59.30
37232;DHT22;23125;48.156;15.954;2022-12-18T06:03:58;-2.30;59.30
37232;DHT22;23125;48.156;15.954;2022-12-18T06:06:27;-2.30;59.30
37232;DHT22;23125;48.156;15.954;2022-12-18T06:08:54;-2.30;59.30
37232;DHT22;23125;48.156;15.954;2022-12-18T06:11:25;-2.30;59.20
37232;DHT22;23125;48.156;15.954;2022-12-18T06:13:55;-2.40;59.20
37232;DHT22;23125;48.156;15.954;2022-12-18T06:16:21;-2.40;59.20
37232;DHT22;23125;48.156;15.954;2022-12-18T06:18:47;-2.40;59.30
37232;DHT22;23125;48.156;15.954;2022-12-18T06:21:13;-2.40;59.40
37232;DHT22;23125;48.156;15.954;2022-12-18T06:23:39;-2.50;59.30
37232;DHT22;23125;48.156;15.954;2022-12-18T06:26:06;-2.50;59.30
37232;DHT22;23125;48.156;15.954;2022-12-18T06:28:32;-2.50;59.30
37232;DHT22;23125;48.156;15.954;2022-12-18T06:30:58;-2.50;59.30
37232;DHT22;23125;48.156;15.954;2022-12-18T06:33:26;-2.60;59.30
37232;DHT22;23125;48.156;15.954;2022-12-18T06:35:54;-2.60;59.30
37232;DHT22;23125;48.156;15.954;2022-12-18T06:38:20;-2.60;59.30
37232;DHT22;23125;48.156;15.954;2022-12-18T06:40:47;-2.60;59.30
37232;DHT22;23125;48.156;15.954;2022-12-18T06:43:13;-2.60;59.30
37232;DHT22;23125;48.156;15.954;2022-12-18T06:45:39;-2.60;59.30
37232;DHT22;23125;48.156;15.954;2022-12-18T06:48:05;-2.60;59.30
37232;DHT22;23125;48.156;15.954;2022-12-18T06:50:30;-2.60;59.30
37232;DHT22;23125;48.156;15.954;2022-12-18T06:52:56;-2.60;59.30
37232;DHT22;23125;48.156;15.954;2022-12-18T06:55:22;-2.60;59.40
37232;DHT22;23125;48.156;15.954;2022-12-18T06:57:48;-2.70;59.30
37232;DHT22;23125;48.156;15.954;2022-12-18T07:00:14;-2.70;59.40
37232;DHT22;23125;48.156;15.954;2022-12-18T07:02:40;-2.60;59.50
37232;DHT22;23125;48.156;15.954;2022-12-18T07:05:06;-2.70;59.50
37232;DHT22;23125;48.156;15.954;2022-12-18T07:07:34;-2.60;59.60
37232;DHT22;23125;48.156;15.954;2022-12-18T07:10:00;-2.60;59.60
37232;DHT22;23125;48.156;15.954;2022-12-18T07:12:29;-2.60;59.60
37232;DHT22;23125;48.156;15.954;2022-12-18T07:14:55;-2.60;59.60
37232;DHT22;23125;48.156;15.954;2022-12-18T07:17:21;-2.70;59.70
37232;DHT22;23125;48.156;15.954;2022-12-18T07:19:47;-2.70;59.70
37232;DHT22;23125;48.156;15.954;2022-12-18T07:22:12;-2.60;59.90
37232;DHT22;23125;48.156;15.954;2022-12-18T07:24:38;-2.60;60.00
37232;DHT22;23125;48.156;15.954;2022-12-18T07:27:04;-2.60;60.00
37232;DHT22;23125;48.156;15.954;2022-12-18T07:29:30;-2.50;60.10
37232;DHT22;23125;48.156;15.954;2022-12-18T07:31:56;-2.50;60.10
37232;DHT22;23125;48.156;15.954;2022-12-18T07:34:22;-2.50;60.20
37232;DHT22;23125;48.156;15.954;2022-12-18T07:36:48;-2.50;60.20
37232;DHT22;23125;48.156;15.954;2022-12-18T07:39:13;-2.50;60.20
37232;DHT22;23125;48.156;15.954;2022-12-18T07:41:39;-2.40;60.40
37232;DHT22;23125;48.156;15.954;2022-12-18T07:44:12;-2.40;61.10
37232;DHT22;23125;48.156;15.954;2022-12-18T07:46:38;-2.30;60.50
37232;DHT22;23125;48.156;15.954;2022-12-18T07:49:04;-2.30;60.50
37232;DHT22;23125;48.156;15.954;2022-12-18T07:51:30;-2.30;60.60
37232;DHT22;23125;48.156;15.954;2022-12-18T07:53:57;-2.20;60.60
37232;DHT22;23125;48.156;15.954;2022-12-18T07:56:23;-2.20;60.60
37232;DHT22;23125;48.156;15.954;2022-12-18T07:58:48;-2.10;60.70
37232;DHT22;23125;48.156;15.954;2022-12-18T08:01:14;-2.10;60.80
37232;DHT22;23125;48.156;15.954;2022-12-18T08:03:40;-2.00;61.10
37232;DHT22;23125;48.156;15.954;2022-12-18T08:06:08;-1.90;62.30
37232;DHT22;23125;48.156;15.954;2022-12-18T08:08:35;-1.60;63.60
37232;DHT22;23125;48.156;15.954;2022-12-18T08:11:01;-1.40;64.40
37232;DHT22;23125;48.156;15.954;2022-12-18T08:13:28;-1.10;65.10
37232;DHT22;23125;48.156;15.954;2022-12-18T08:16:05;-0.80;65.50
37232;DHT22;23125;48.156;15.954;2022-12-18T08:18:36;-0.50;65.90
37232;DHT22;23125;48.156;15.954;2022-12-18T08:21:16;-0.20;66.30
37232;DHT22;23125;48.156;15.954;2022-12-18T08:23:44;0.10;66.60
37232;DHT22;23125;48.156;15.954;2022-12-18T08:26:11;0.40;66.80
37232;DHT22;23125;48.156;15.954;2022-12-18T08:28:38;0.70;66.90
37232;DHT22;23125;48.156;15.954;2022-12-18T08:31:04;1.00;66.90
37232;DHT22;23125;48.156;15.954;2022-12-18T08:33:29;1.30;66.90
37232;DHT22;23125;48.156;15.954;2022-12-18T08:35:55;1.50;67.00
37232;DHT22;23125;48.156;15.954;2022-12-18T08:38:21;1.80;67.10
37232;DHT22;23125;48.156;15.954;2022-12-18T08:40:48;2.10;67.10
37232;DHT22;23125;48.156;15.954;2022-12-18T08:43:14;2.40;67.20
37232;DHT22;23125;48.156;15.954;2022-12-18T08:45:58;2.70;67.50
37232;DHT22;23125;48.156;15.954;2022-12-18T08:48:24;3.00;66.60
37232;DHT22;23125;48.156;15.954;2022-12-18T08:50:59;3.20;66.60
37232;DHT22;23125;48.156;15.954;2022-12-18T08:53:26;3.50;66.50
37232;DHT22;23125;48.156;15.954;2022-12-18T08:55:52;3.70;66.30
37232;DHT22;23125;48.156;15.954;2022-12-18T08:58:19;4.00;66.20
37232;DHT22;23125;48.156;15.954;2022-12-18T09:00:45;4.20;65.90
37232;DHT22;23125;48.156;15.954;2022-12-18T09:03:18;4.40;65.70
37232;DHT22;23125;48.156;15.954;2022-12-18T09:05:48;4.60;65.20
37232;DHT22;23125;48.156;15.954;2022-12-18T09:08:14;4.80;65.00
37232;DHT22;23125;48.156;15.954;2022-12-18T09:10:44;5.10;64.90
37232;DHT22;23125;48.156;15.954;2022-12-18T09:13:11;5.20;64.20
37232;DHT22;23125;48.156;15.954;2022-12-18T09:15:44;5.30;63.60
37232;DHT22;23125;48.156;15.954;2022-12-18T09:18:11;5.50;64.20
37232;DHT22;23125;48.156;15.954;2022-12-18T09:20:38;5.70;63.40
37232;DHT22;23125;48.156;15.954;2022-12-18T09:23:05;5.80;62.90
37232;DHT22;23125;48.156;15.954;2022-12-18T09:25:32;5.90;61.80
37232;DHT22;23125;48.156;15.954;2022-12-18T09:28:02;5.90;61.20
37232;DHT22;23125;48.156;15.954;2022-12-18T09:30:29;5.90;60.40
37232;DHT22;23125;48.156;15.954;2022-12-18T09:32:55;5.80;59.40
37232;DHT22;23125;48.156;15.954;2022-12-18T09:35:21;5.70;59.10
37232;DHT22;23125;48.156;15.954;2022-12-18T09:37:47;5.60;58.80
37232;DHT22;23125;48.156;15.954;2022-12-18T09:40:19;5.30;57.80
37232;DHT22;23125;48.156;15.954;2022-12-18T09:42:49;5.10;57.20
37232;DHT22;23125;48.156;15.954;2022-12-18T09:45:17;4.90;57.20
37232;DHT22;23125;48.156;15.954;2022-12-18T09:47:45;4.60;56.70
37232;DHT22;23125;48.156;15.954;2022-12-18T09:50:26;4.40;57.20
37232;DHT22;23125;48.156;15.954;2022-12-18T09:52:57;4.20;57.90
37232;DHT22;23125;48.156;15.954;2022-12-18T09:57:57;4.00;58.70
37232;DHT22;23125;48.156;15.954;2022-12-18T10:00:27;4.00;58.90
37232;DHT22;23125;48.156;15.954;2022-12-18T10:02:59;4.00;59.20
37232;DHT22;23125;48.156;15.954;2022-12-18T10:06:06;3.90;59.10
37232;DHT22;23125;48.156;15.954;2022-12-18T10:20:21;3.80;59.70
37232;DHT22;23125;48.156;15.954;2022-12-18T10:28:31;3.70;59.50
37232;DHT22;23125;48.156;15.954;2022-12-18T10:30:58;3.60;59.20
37232;DHT22;23125;48.156;15.954;2022-12-18T10:33:29;3.60;59.80
37232;DHT22;23125;48.156;15.954;2022-12-18T10:35:55;3.50;59.00
37232;DHT22;23125;48.156;15.954;2022-12-18T10:38:32;3.50;59.30
37232;DHT22;23125;48.156;15.954;2022-12-18T10:43:51;3.40;59.50
37232;DHT22;23125;48.156;15.954;2022-12-18T10:46:35;3.40;59.30
37232;DHT22;23125;48.156;15.954;2022-12-18T10:49:00;3.40;59.30
37232;DHT22;23125;48.156;15.954;2022-12-18T10:51:32;3.40;59.40
37232;DHT22;23125;48.156;15.954;2022-12-18T10:53:59;3.30;59.40
37232;DHT22;23125;48.156;15.954;2022-12-18T10:56:27;3.40;59.60
37232;DHT22;23125;48.156;15.954;2022-12-18T10:59:03;3.40;59.60
37232;DHT22;23125;48.156;15.954;2022-12-18T11:04:25;3.40;59.80
37232;DHT22;23125;48.156;15.954;2022-12-18T11:07:00;3.40;59.70
37232;DHT22;23125;48.156;15.954;2022-12-18T11:09:28;3.40;59.50
37232;DHT22;23125;48.156;15.954;2022-12-18T11:11:57;3.30;59.40
37232;DHT22;23125;48.156;15.954;2022-12-18T11:14:32;3.30;59.40
37232;DHT22;23125;48.156;15.954;2022-12-18T11:17:00;3.30;59.30
37232;DHT22;23125;48.156;15.954;2022-12-18T11:19:40;3.30;59.40
37232;DHT22;23125;48.156;15.954;2022-12-18T11:27:26;3.30;59.80
37232;DHT22;23125;48.156;15.954;2022-12-18T11:30:20;3.30;59.70
37232;DHT22;23125;48.156;15.954;2022-12-18T11:32:55;3.30;59.70
37232;DHT22;23125;48.156;15.954;2022-12-18T11:36:09;3.30;59.80
37232;DHT22;23125;48.156;15.954;2022-12-18T11:38:39;3.30;59.70
37232;DHT22;23125;48.156;15.954;2022-12-18T11:41:38;3.40;59.70
37232;DHT22;23125;48.156;15.954;2022-12-18T11:44:29;3.30;59.50
37232;DHT22;23125;48.156;15.954;2022-12-18T11:47:02;3.30;59.40
37232;DHT22;23125;48.156;15.954;2022-12-18T11:49:35;3.30;59.40
37232;DHT22;23125;48.156;15.954;2022-12-18T11:52:20;3.20;59.40
37232;DHT22;23125;48.156;15.954;2022-12-18T11:54:51;3.30;59.70
37232;DHT22;23125;48.156;15.954;2022-12-18T11:58:02;3.30;59.60
37232;DHT22;23125;48.156;15.954;2022-12-18T12:00:30;3.30;59.70
37232;DHT22;23125;48.156;15.954;2022-12-18T12:05:44;3.20;59.20
37232;DHT22;23125;48.156;15.954;2022-12-18T12:16:25;3.30;59.70
37232;DHT22;23125;48.156;15.954;2022-12-18T12:21:46;3.20;59.40
37232;DHT22;23125;48.156;15.954;2022-12-18T12:30:04;3.20;59.30
37232;DHT22;23125;48.156;15.954;2022-12-18T12:35:21;3.20;59.30
37232;DHT22;23125;48.156;15.954;2022-12-18T12:41:00;3.20;59.60
37232;DHT22;23125;48.156;15.954;2022-12-18T12:43:44;3.20;59.60
37232;DHT22;23125;48.156;15.954;2022-12-18T12:46:16;3.20;59.60
37232;DHT22;23125;48.156;15.954;2022-12-18T12:48:46;3.30;59.70
37232;DHT22;23125;48.156;15.954;2022-12-18T12:51:25;3.30;59.50
37232;DHT22;23125;48.156;15.954;2022-12-18T12:53:54;3.30;59.60
37232;DHT22;23125;48.156;15.954;2022-12-18T12:56:21;3.30;59.50
37232;DHT22;23125;48.156;15.954;2022-12-18T13:04:36;3.30;59.10
37232;DHT22;23125;48.156;15.954;2022-12-18T13:07:29;3.30;59.10
37232;DHT22;23125;48.156;15.954;2022-12-18T13:10:24;3.20;59.10
37232;DHT22;23125;48.156;15.954;2022-12-18T13:13:07;3.20;59.30
37232;DHT22;23125;48.156;15.954;2022-12-18T13:15:45;3.20;59.80
37232;DHT22;23125;48.156;15.954;2022-12-18T13:18:22;3.30;59.50
37232;DHT22;23125;48.156;15.954;2022-12-18T13:21:16;3.30;59.50
37232;DHT22;23125;48.156;15.954;2022-12-18T13:23:40;3.30;59.40
37232;DHT22;23125;48.156;15.954;2022-12-18T13:34:21;3.40;59.30
37232;DHT22;23125;48.156;15.954;2022-12-18T13:36:48;3.40;59.20
37232;DHT22;23125;48.156;15.954;2022-12-18T13:41:45;3.40;59.00
37232;DHT22;23125;48.156;15.954;2022-12-18T13:44:34;3.40;59.00
37232;DHT22;23125;48.156;15.954;2022-12-18T13:47:03;3.30;59.10
37232;DHT22;23125;48.156;15.954;2022-12-18T13:49:39;3.30;58.80
37232;DHT22;23125;48.156;15.954;2022-12-18T13:52:21;3.30;58.80
37232;DHT22;23125;48.156;15.954;2022-12-18T13:54:51;3.30;59.00
37232;DHT22;23125;48.156;15.954;2022-12-18T13:57:31;3.30;59.10
37232;DHT22;23125;48.156;15.954;2022-12-18T13:59:58;3.30;58.90
37232;DHT22;23125;48.156;15.954;2022-12-18T14:02:26;3.20;59.40
37232;DHT22;23125;48.156;15.954;2022-12-18T14:04:53;3.20;58.80
37232;DHT22;23125;48.156;15.954;2022-12-18T14:07:26;3.20;58.70
37232;DHT22;23125;48.156;15.954;2022-12-18T14:09:56;3.10;58.60
37232;DHT22;23125;48.156;15.954;2022-12-18T14:12:32;3.10;58.70
37232;DHT22;23125;48.156;15.954;2022-12-18T14:17:58;3.10;58.70
37232;DHT22;23125;48.156;15.954;2022-12-18T14:20:26;3.00;58.50
37232;DHT22;23125;48.156;15.954;2022-12-18T14:22:52;3.00;58.40
37232;DHT22;23125;48.156;15.954;2022-12-18T14:25:23;2.90;58.40
37232;DHT22;23125;48.156;15.954;2022-12-18T14:30:37;2.90;58.60
37232;DHT22;23125;48.156;15.954;2022-12-18T14:36:04;2.90;58.80
37232;DHT22;23125;48.156;15.954;2022-12-18T14:38:39;2.80;58.80
37232;DHT22;23125;48.156;15.954;2022-12-18T14:41:10;2.90;58.90
37232;DHT22;23125;48.156;15.954;2022-12-18T14:43:38;2.90;59.10
37232;DHT22;23125;48.156;15.954;2022-12-18T14:49:02;2.90;58.90
37232;DHT22;23125;48.156;15.954;2022-12-18T14:51:31;2.90;59.00
37232;DHT22;23125;48.156;15.954;2022-12-18T14:54:03;2.90;58.90
37232;DHT22;23125;48.156;15.954;2022-12-18T14:56:44;2.90;58.90
37232;DHT22;23125;48.156;15.954;2022-12-18T14:59:15;2.90;59.00
37232;DHT22;23125;48.156;15.954;2022-12-18T15:01:57;2.90;59.00
37232;DHT22;23125;48.156;15.954;2022-12-18T15:04:27;2.90;59.10
37232;DHT22;23125;48.156;15.954;2022-12-18T15:07:03;2.90;59.00
37232;DHT22;23125;48.156;15.954;2022-12-18T15:09:29;2.90;58.90
37232;DHT22;23125;48.156;15.954;2022-12-18T15:11:57;2.90;59.00
37232;DHT22;23125;48.156;15.954;2022-12-18T15:16:57;2.90;59.10
37232;DHT22;23125;48.156;15.954;2022-12-18T15:19:49;2.90;59.20
37232;DHT22;23125;48.156;15.954;2022-12-18T15:22:28;2.90;59.20
37232;DHT22;23125;48.156;15.954;2022-12-18T15:24:56;2.90;59.10
37232;DHT22;23125;48.156;15.954;2022-12-18T15:27:33;2.90;59.00
37232;DHT22;23125;48.156;15.954;2022-12-18T15:32:42;2.90;59.10
37232;DHT22;23125;48.156;15.954;2022-12-18T15:37:34;3.00;59.00
37232;DHT22;23125;48.156;15.954;2022-12-18T15:40:00;2.90;59.00
37232;DHT22;23125;48.156;15.954;2022-12-18T15:42:28;2.90;58.90
37232;DHT22;23125;48.156;15.954;2022-12-18T15:45:14;3.00;59.10
37232;DHT22;23125;48.156;15.954;2022-12-18T15:47:40;3.00;59.00
37232;DHT22;23125;48.156;15.954;2022-12-18T15:50:09;3.00;59.10
37232;DHT22;23125;48.156;15.954;2022-12-18T15:52:44;3.00;59.20
37232;DHT22;23125;48.156;15.954;2022-12-18T15:55:14;3.00;59.20
37232;DHT22;23125;48.156;15.954;2022-12-18T15:57:59;3.00;59.00
37232;DHT22;23125;48.156;15.954;2022-12-18T16:00:25;3.00;59.00
37232;DHT22;23125;48.156;15.954;2022-12-18T16:02:52;2.90;58.80
37232;DHT22;23125;48.156;15.954;2022-12-18T16:05:20;3.00;59.00
37232;DHT22;23125;48.156;15.954;2022-12-18T16:07:47;3.00;59.00
37232;DHT22;23125;48.156;15.954;2022-12-18T16:10:14;2.90;58.90
37232;DHT22;23125;48.156;15.954;2022-12-18T16:12:41;2.90;59.00
37232;DHT22;23125;48.156;15.954;2022-12-18T16:15:09;2.90;59.20
37232;DHT22;23125;48.156;15.954;2022-12-18T16:17:35;2.90;59.10
37232;DHT22;23125;48.156;15.954;2022-12-18T16:20:01;2.90;58.90
37232;DHT22;23125;48.156;15.954;2022-12-18T16:22:30;2.90;59.10
37232;DHT22;23125;48.156;15.954;2022-12-18T16:24:56;3.00;59.10
37232;DHT22;23125;48.156;15.954;2022-12-18T16:27:23;2.90;59.00
37232;DHT22;23125;48.156;15.954;2022-12-18T16:29:50;2.90;59.10
37232;DHT22;23125;48.156;15.954;2022-12-18T16:32:19;3.00;59.20
37232;DHT22;23125;48.156;15.954;2022-12-18T16:34:45;2.90;59.10
37232;DHT22;23125;48.156;15.954;2022-12-18T16:37:13;3.00;59.10
37232;DHT22;23125;48.156;15.954;2022-12-18T16:39:40;2.90;58.90
37232;DHT22;23125;48.156;15.954;2022-12-18T16:42:12;2.90;58.90
37232;DHT22;23125;48.156;15.954;2022-12-18T16:44:47;2.90;59.10
37232;DHT22;23125;48.156;15.954;2022-12-18T16:47:13;2.90;59.10
37232;DHT22;23125;48.156;15.954;2022-12-18T16:49:39;2.90;59.10
37232;DHT22;23125;48.156;15.954;2022-12-18T16:52:05;2.90;59.20
37232;DHT22;23125;48.156;15.954;2022-12-18T16:54:33;2.90;59.20
37232;DHT22;23125;48.156;15.954;2022-12-18T16:57:01;2.90;59.20
37232;DHT22;23125;48.156;15.954;2022-12-18T16:59:29;2.90;59.10
37232;DHT22;23125;48.156;15.954;2022-12-18T17:01:55;2.90;59.10
37232;DHT22;23125;48.156;15.954;2022-12-18T17:04:22;2.90;59.20
37232;DHT22;23125;48.156;15.954;2022-12-18T17:06:48;2.90;59.20
37232;DHT22;23125;48.156;15.954;2022-12-18T17:09:18;2.90;59.20
37232;DHT22;23125;48.156;15.954;2022-12-18T17:11:49;2.90;59.20
37232;DHT22;23125;48.156;15.954;2022-12-18T17:14:21;2.90;59.30
37232;DHT22;23125;48.156;15.954;2022-12-18T17:16:50;2.90;59.40
37232;DHT22;23125;48.156;15.954;2022-12-18T17:19:16;2.90;59.40
37232;DHT22;23125;48.156;15.954;2022-12-18T17:21:43;2.90;59.30
37232;DHT22;23125;48.156;15.954;2022-12-18T17:24:09;2.90;59.20
37232;DHT22;23125;48.156;15.954;2022-12-18T17:26:36;2.90;59.30
37232;DHT22;23125;48.156;15.954;2022-12-18T17:29:02;2.90;59.30
37232;DHT22;23125;48.156;15.954;2022-12-18T17:31:29;2.90;59.40
37232;DHT22;23125;48.156;15.954;2022-12-18T17:33:56;3.00;59.40
37232;DHT22;23125;48.156;15.954;2022-12-18T17:36:23;3.00;59.50
37232;DHT22;23125;48.156;15.954;2022-12-18T17:38:54;3.00;59.50
37232;DHT22;23125;48.156;15.954;2022-12-18T17:41:22;3.00;59.30
37232;DHT22;23125;48.156;15.954;2022-12-18T17:43:51;3.00;59.30
37232;DHT22;23125;48.156;15.954;2022-12-18T17:46:18;3.00;59.40
37232;DHT22;23125;48.156;15.954;2022-12-18T17:48:44;3.00;59.40
37232;DHT22;23125;48.156;15.954;2022-12-18T17:51:10;3.00;59.40
37232;DHT22;23125;48.156;15.954;2022-12-18T17:53:37;3.00;59.50